createdAt,value
2019-05-19T00:00:38.273Z,96467.13
2019-05-19T00:03:08.521Z,96467.13
2019-05-19T00:05:38.132Z,96466.83
2019-05-19T00:08:08.100Z,96463.08
2019-05-19T00:10:37.791Z,96464.27
2019-05-19T00:13:07.926Z,96459.95
2019-05-19T00:15:38.000Z,96459.95
2019-05-19T00:18:07.812Z,96459.61
2019-05-19T00:20:37.522Z,96459.61
2019-05-19T00:23:07.591Z,96467.07
2019-05-19T00:25:37.465Z,96465.89
2019-05-19T00:28:07.377Z,96467.14
2019-05-19T00:30:37.408Z,96460.23
2019-05-19T00:33:07.388Z,96455.88
2019-05-19T00:35:39.458Z,96457.61
2019-05-19T00:38:09.173Z,96449.93
2019-05-19T00:40:39.185Z,96452.32
2019-05-19T00:43:09.333Z,96442.06
2019-05-19T00:45:39.201Z,96442.06
2019-05-19T00:48:09.015Z,96441.92
2019-05-19T00:50:39.482Z,96443.25
2019-05-19T00:53:09.245Z,96447.63
2019-05-19T00:55:39.080Z,96452.67
2019-05-19T00:58:09.244Z,96450.48
2019-05-19T01:00:39.098Z,96450.78
2019-05-19T01:03:08.891Z,96450.78
2019-05-19T01:05:38.796Z,96448.26
2019-05-19T01:08:08.762Z,96448.53
2019-05-19T01:10:38.554Z,96451.34
2019-05-19T01:13:08.490Z,96451.02
2019-05-19T01:15:38.146Z,96451.02
2019-05-19T01:18:08.222Z,96448.19
2019-05-19T01:20:38.023Z,96440.20
2019-05-19T01:23:07.706Z,96434.19
2019-05-19T01:25:37.580Z,96434.19
2019-05-19T01:28:07.202Z,96437.11
2019-05-19T01:30:37.196Z,96437.11
2019-05-19T01:33:07.325Z,96430.05
2019-05-19T01:35:37.257Z,96436.64
2019-05-19T01:38:06.879Z,96433.17
2019-05-19T01:40:36.719Z,96433.17
2019-05-19T01:43:06.523Z,96431.72
2019-05-19T01:45:36.366Z,96429.20
2019-05-19T01:48:06.209Z,96434.41
2019-05-19T01:50:38.182Z,96423.66
2019-05-19T01:53:08.533Z,96420.58
2019-05-19T01:55:38.325Z,96424.38
2019-05-19T01:58:08.141Z,96417.92
2019-05-19T02:00:39.946Z,96416.02
2019-05-19T02:03:09.894Z,96416.02
2019-05-19T02:05:40.250Z,96412.08
2019-05-19T02:08:10.102Z,96412.08
2019-05-19T02:10:39.785Z,96408.00
2019-05-19T02:13:09.741Z,96408.00
2019-05-19T02:15:39.580Z,96408.72
2019-05-19T02:18:09.708Z,96408.72
2019-05-19T02:20:39.533Z,96406.53
2019-05-19T02:23:09.294Z,96406.98
2019-05-19T02:25:39.431Z,96405.98
2019-05-19T02:28:09.300Z,96401.66
2019-05-19T02:30:39.408Z,96401.62
2019-05-19T02:33:09.126Z,96401.33
2019-05-19T02:35:38.837Z,96405.02
2019-05-19T02:38:08.779Z,96405.36
2019-05-19T02:40:40.462Z,96403.13
2019-05-19T02:43:10.388Z,96400.15
2019-05-19T02:45:40.405Z,96400.15
2019-05-19T02:48:10.240Z,96396.13
2019-05-19T02:50:51.839Z,96397.30
2019-05-19T02:53:11.788Z,96397.30
2019-05-19T02:55:41.412Z,96399.14
2019-05-19T02:58:11.056Z,96399.14
2019-05-19T03:00:42.373Z,96399.52
2019-05-19T03:03:12.431Z,96401.75
2019-05-19T03:05:42.056Z,96392.81
2019-05-19T03:08:11.656Z,96392.81
2019-05-19T03:10:41.283Z,96402.59
2019-05-19T03:13:10.901Z,96396.00
2019-05-19T03:15:40.464Z,96396.00
2019-05-19T03:18:10.365Z,96402.42
2019-05-19T03:20:40.150Z,96402.30
2019-05-19T03:23:09.866Z,96402.30
2019-05-19T03:25:43.835Z,96399.77
2019-05-19T03:28:11.581Z,96399.77
2019-05-19T03:30:58.921Z,96394.06
2019-05-19T03:33:30.552Z,96394.06
2019-05-19T03:36:02.615Z,96391.55
2019-05-19T03:38:32.608Z,96388.52
2019-05-19T03:41:02.350Z,96390.30
2019-05-19T03:43:31.962Z,96392.72
2019-05-19T03:46:01.700Z,96391.04
2019-05-19T03:48:31.219Z,96398.56
2019-05-19T03:51:00.882Z,96398.56
2019-05-19T03:53:31.507Z,96394.35
2019-05-19T03:56:01.249Z,96394.35
2019-05-19T03:58:30.840Z,96396.03
2019-05-19T04:01:00.389Z,96392.34
2019-05-19T04:03:30.059Z,96389.15
2019-05-19T04:06:01.993Z,96389.15
2019-05-19T04:08:32.835Z,96395.36
2019-05-19T04:11:02.556Z,96391.84
2019-05-19T04:13:32.670Z,96384.61
2019-05-19T04:16:02.348Z,96384.61
2019-05-19T04:18:32.187Z,96389.16
2019-05-19T04:21:05.174Z,96388.82
2019-05-19T04:23:35.134Z,96386.76
2019-05-19T04:26:06.741Z,96387.55
2019-05-19T04:28:36.239Z,96387.55
2019-05-19T04:31:05.846Z,96389.61
2019-05-19T04:33:38.631Z,96389.61
2019-05-19T04:36:09.669Z,96390.91
2019-05-19T04:38:39.407Z,96390.91
2019-05-19T04:41:08.803Z,96394.00
2019-05-19T04:43:40.174Z,96395.01
2019-05-19T04:46:10.006Z,96392.77
2019-05-19T04:48:39.548Z,96388.17
2019-05-19T04:51:09.059Z,96389.68
2019-05-19T04:53:39.266Z,96392.89
2019-05-19T04:56:09.181Z,96399.44
2019-05-19T04:58:38.811Z,96397.63
2019-05-19T05:01:08.809Z,96397.63
2019-05-19T05:03:38.476Z,96395.05
2019-05-19T05:06:09.154Z,96395.05
2019-05-19T05:08:38.693Z,96395.05
2019-05-19T05:11:08.464Z,96393.38
2019-05-19T05:13:38.111Z,96392.52
2019-05-19T05:16:08.205Z,96392.52
2019-05-19T05:18:37.791Z,96390.64
2019-05-19T05:21:07.605Z,96390.56
2019-05-19T05:23:37.122Z,96387.42
2019-05-19T05:26:06.772Z,96382.21
2019-05-19T05:28:37.949Z,96385.81
2019-05-19T05:31:09.359Z,96380.59
2019-05-19T05:33:42.103Z,96379.21
2019-05-19T05:36:11.586Z,96379.21
2019-05-19T05:38:41.301Z,96393.84
2019-05-19T05:41:10.905Z,96387.14
2019-05-19T05:43:40.385Z,96391.88
2019-05-19T05:46:10.222Z,96393.02
2019-05-19T05:48:44.334Z,96395.13
2019-05-19T05:51:13.944Z,96394.91
2019-05-19T05:53:44.255Z,96394.91
2019-05-19T05:56:13.944Z,96403.30
2019-05-19T05:58:44.196Z,96394.25
2019-05-19T06:01:13.758Z,96394.25
2019-05-19T06:03:44.448Z,96398.28
2019-05-19T06:06:17.832Z,96392.26
2019-05-19T06:08:47.439Z,96397.56
2019-05-19T06:11:18.578Z,96396.21
2019-05-19T06:13:49.617Z,96396.21
2019-05-19T06:16:21.182Z,96395.00
2019-05-19T06:18:56.680Z,96396.02
2019-05-19T06:21:26.520Z,96393.67
2019-05-19T06:23:58.585Z,96390.45
2019-05-19T06:26:28.265Z,96390.45
2019-05-19T06:28:58.047Z,96394.05
2019-05-19T06:31:27.998Z,96397.48
2019-05-19T06:33:57.525Z,96405.91
2019-05-19T06:36:27.072Z,96398.06
2019-05-19T06:38:56.747Z,96398.06
2019-05-19T06:41:26.414Z,96401.73
2019-05-19T06:43:56.279Z,96403.60
2019-05-19T06:46:26.187Z,96398.28
2019-05-19T06:48:57.760Z,96398.28
2019-05-19T06:51:27.938Z,96392.97
2019-05-19T06:53:57.441Z,96392.97
2019-05-19T06:56:27.070Z,96396.58
2019-05-19T06:58:56.565Z,96396.58
2019-05-19T07:01:26.208Z,96399.75
2019-05-19T07:03:55.889Z,96399.75
2019-05-19T07:06:25.392Z,96399.02
2019-05-19T07:08:56.329Z,96397.45
2019-05-19T07:11:26.275Z,96397.45
2019-05-19T07:13:58.403Z,96398.52
2019-05-19T07:16:28.553Z,96397.08
2019-05-19T07:19:01.142Z,96401.91
2019-05-19T07:21:30.930Z,96395.27
2019-05-19T07:24:00.745Z,96393.83
2019-05-19T07:26:32.075Z,96388.73
2019-05-19T07:29:04.191Z,96388.73
2019-05-19T07:31:33.757Z,96389.14
2019-05-19T07:34:03.317Z,96392.80
2019-05-19T07:36:33.267Z,96386.11
2019-05-19T07:39:02.840Z,96386.11
2019-05-19T07:41:32.923Z,96388.41
2019-05-19T07:44:02.653Z,96384.77
2019-05-19T07:46:32.824Z,96387.92
2019-05-19T07:49:04.215Z,96382.94
2019-05-19T07:51:35.567Z,96383.69
2019-05-19T07:54:08.328Z,96383.58
2019-05-19T07:56:38.007Z,96383.47
2019-05-19T07:59:08.185Z,96378.50
2019-05-19T08:01:37.841Z,96372.63
2019-05-19T08:04:09.294Z,96372.98
2019-05-19T08:06:38.874Z,96382.87
2019-05-19T08:09:08.336Z,96382.87
2019-05-19T08:11:40.347Z,96380.22
2019-05-19T08:14:11.181Z,96380.22
2019-05-19T08:16:40.600Z,96381.80
2019-05-19T08:19:10.500Z,96378.06
2019-05-19T08:21:43.417Z,96374.45
2019-05-19T08:24:13.018Z,96373.45
2019-05-19T08:26:42.705Z,96379.07
2019-05-19T08:29:13.121Z,96379.07
2019-05-19T08:31:42.760Z,96374.50
2019-05-19T08:34:12.441Z,96378.14
2019-05-19T08:36:43.260Z,96372.34
2019-05-19T08:39:12.816Z,96372.34
2019-05-19T08:41:42.276Z,96375.93
2019-05-19T08:44:13.142Z,96375.54
2019-05-19T08:46:43.010Z,96379.41
2019-05-19T08:49:12.414Z,96379.41
2019-05-19T08:51:42.711Z,96377.51
2019-05-19T08:54:14.906Z,96377.15
2019-05-19T08:56:45.566Z,96369.47
2019-05-19T08:59:15.475Z,96369.47
2019-05-19T09:01:44.977Z,96370.98
2019-05-19T09:04:15.759Z,96372.81
2019-05-19T09:06:45.272Z,96369.92
2019-05-19T09:09:14.933Z,96365.27
2019-05-19T09:11:47.765Z,96359.52
2019-05-19T09:14:15.880Z,96359.20
2019-05-19T09:16:47.840Z,96359.55
2019-05-19T09:19:19.232Z,96358.50
2019-05-19T09:21:50.205Z,96358.50
2019-05-19T09:24:29.994Z,96357.97
2019-05-19T09:26:50.863Z,96367.72
2019-05-19T09:29:24.625Z,96366.45
2019-05-19T09:31:53.888Z,96366.45
2019-05-19T09:34:23.500Z,96356.16
2019-05-19T09:36:54.283Z,96361.39
2019-05-19T09:39:24.141Z,96354.40
2019-05-19T09:41:55.690Z,96361.41
2019-05-19T09:44:25.626Z,96361.00
2019-05-19T09:46:55.144Z,96357.28
2019-05-19T09:49:32.479Z,96357.28
2019-05-19T09:52:03.528Z,96354.80
2019-05-19T09:54:44.033Z,96354.80
2019-05-19T09:57:04.180Z,96348.88
2019-05-19T09:59:33.835Z,96348.88
2019-05-19T10:02:03.256Z,96350.08
2019-05-19T10:04:33.057Z,96353.14
2019-05-19T10:07:03.252Z,96353.21
2019-05-19T10:10:04.899Z,96352.69
2019-05-19T10:12:35.666Z,96348.45
2019-05-19T10:15:05.891Z,96350.50
2019-05-19T10:17:35.605Z,96352.22
2019-05-19T10:20:05.917Z,96343.87
2019-05-19T10:22:35.531Z,96341.55
2019-05-19T10:25:20.978Z,96344.54
2019-05-19T10:27:40.655Z,96338.12
2019-05-19T10:30:10.419Z,96339.62
2019-05-19T10:32:40.018Z,96341.98
2019-05-19T10:35:09.490Z,96344.53
2019-05-19T10:37:39.095Z,96344.53
2019-05-19T10:40:08.453Z,96348.27
2019-05-19T10:42:38.212Z,96348.27
2019-05-19T10:45:09.310Z,96348.41
2019-05-19T10:47:39.237Z,96349.41
2019-05-19T10:50:08.902Z,96350.91
2019-05-19T10:52:39.781Z,96350.91
2019-05-19T10:55:10.211Z,96353.58
2019-05-19T10:57:39.803Z,96353.70
2019-05-19T11:00:09.621Z,96346.84
2019-05-19T11:02:39.142Z,96343.84
2019-05-19T11:05:11.349Z,96342.73
2019-05-19T11:07:42.008Z,96334.08
2019-05-19T11:10:14.602Z,96329.69
2019-05-19T11:12:47.131Z,96329.69
2019-05-19T11:15:17.611Z,96322.37
2019-05-19T11:17:47.413Z,96322.89
2019-05-19T11:20:20.610Z,96322.89
2019-05-19T11:22:55.471Z,96322.42
2019-05-19T11:25:33.603Z,96318.09
2019-05-19T11:27:56.220Z,96318.58
2019-05-19T11:30:25.815Z,96318.58
2019-05-19T11:32:55.349Z,96323.42
2019-05-19T11:35:28.127Z,96323.42
2019-05-19T11:37:59.546Z,96330.69
2019-05-19T11:40:30.735Z,96337.34
2019-05-19T11:43:00.189Z,96346.11
2019-05-19T11:45:32.504Z,96355.21
2019-05-19T11:48:02.368Z,96359.55
2019-05-19T11:50:32.391Z,96359.55
2019-05-19T11:53:02.657Z,96363.38
2019-05-19T11:55:32.881Z,96364.85
2019-05-19T11:58:04.064Z,96366.94
2019-05-19T12:00:35.474Z,96366.94
2019-05-19T12:03:07.742Z,96375.10
2019-05-19T12:05:37.425Z,96375.10
2019-05-19T12:08:08.223Z,96369.56
2019-05-19T12:10:40.614Z,96368.56
2019-05-19T12:13:11.121Z,96370.60
2019-05-19T12:15:40.641Z,96383.78
2019-05-19T12:18:12.316Z,96381.35
2019-05-19T12:20:43.434Z,96381.35
2019-05-19T12:23:14.278Z,96384.43
2019-05-19T12:25:43.989Z,96384.43
2019-05-19T12:28:16.558Z,96393.95
2019-05-19T12:30:48.216Z,96390.51
2019-05-19T12:33:17.851Z,96396.94
2019-05-19T12:35:47.331Z,96396.25
2019-05-19T12:38:16.907Z,96396.25
2019-05-19T12:40:46.239Z,96397.29
2019-05-19T12:43:19.428Z,96393.38
2019-05-19T12:45:49.248Z,96411.72
2019-05-19T12:48:19.051Z,96411.72
2019-05-19T12:50:52.011Z,96416.88
2019-05-19T12:53:24.129Z,96410.55
2019-05-19T12:55:53.381Z,96414.19
2019-05-19T12:58:23.782Z,96414.19
2019-05-19T13:00:58.251Z,96416.03
2019-05-19T13:03:28.765Z,96421.52
2019-05-19T13:06:00.235Z,96420.77
2019-05-19T13:08:29.938Z,96429.41
2019-05-19T13:11:03.146Z,96430.30
2019-05-19T13:13:32.792Z,96430.30
2019-05-19T13:16:02.629Z,96432.66
2019-05-19T13:18:34.242Z,96441.08
2019-05-19T13:21:04.397Z,96441.08
2019-05-19T13:23:34.636Z,96435.92
2019-05-19T13:26:06.761Z,96445.70
2019-05-19T13:28:36.299Z,96445.70
2019-05-19T13:31:06.112Z,96442.84
2019-05-19T13:33:35.710Z,96448.12
2019-05-19T13:36:09.712Z,96447.11
2019-05-19T13:38:41.585Z,96447.11
2019-05-19T13:41:11.131Z,96451.27
2019-05-19T13:43:43.164Z,96453.78
2019-05-19T13:46:15.345Z,96453.78
2019-05-19T13:48:47.166Z,96455.19
2019-05-19T13:51:17.019Z,96455.19
2019-05-19T13:53:49.148Z,96457.25
2019-05-19T13:56:18.659Z,96456.89
2019-05-19T13:58:48.271Z,96458.00
2019-05-19T14:01:28.297Z,96458.00
2019-05-19T14:03:52.213Z,96453.01
2019-05-19T14:06:22.316Z,96455.20
2019-05-19T14:08:54.354Z,96453.94
2019-05-19T14:11:26.341Z,96455.88
2019-05-19T14:13:55.777Z,96443.97
2019-05-19T14:16:27.671Z,96443.97
2019-05-19T14:18:57.282Z,96459.13
2019-05-19T14:21:27.418Z,96457.89
2019-05-19T14:23:56.972Z,96464.55
2019-05-19T14:26:27.508Z,96458.46
2019-05-19T14:29:00.134Z,96458.46
2019-05-19T14:31:29.771Z,96465.98
2019-05-19T14:33:59.654Z,96467.00
2019-05-19T14:36:29.170Z,96463.61
2019-05-19T14:39:05.488Z,96462.75
2019-05-19T14:41:41.063Z,96461.19
2019-05-19T14:44:10.566Z,96455.08
2019-05-19T14:46:40.438Z,96446.98
2019-05-19T14:49:10.001Z,96447.41
2019-05-19T14:51:39.517Z,96440.16
2019-05-19T14:54:09.727Z,96430.30
2019-05-19T14:56:43.592Z,96426.11
2019-05-19T14:59:13.361Z,96414.39
2019-05-19T15:01:46.133Z,96408.92
2019-05-19T15:04:15.776Z,96408.92
2019-05-19T15:06:45.432Z,96401.14
2019-05-19T15:09:18.943Z,96401.14
2019-05-19T15:11:48.899Z,96393.27
2019-05-19T15:14:21.117Z,96379.93
2019-05-19T15:16:50.831Z,96379.93
2019-05-19T15:19:20.544Z,96380.91
2019-05-19T15:21:50.650Z,96385.73
2019-05-19T15:24:20.266Z,96375.15
2019-05-19T15:26:53.476Z,96368.88
2019-05-19T15:29:23.378Z,96368.88
2019-05-19T15:31:52.843Z,96366.56
2019-05-19T15:34:22.633Z,96366.56
2019-05-19T15:36:54.428Z,96368.48
2019-05-19T15:39:25.970Z,96364.35
2019-05-19T15:41:55.905Z,96359.13
2019-05-19T15:44:26.593Z,96359.13
2019-05-19T15:47:00.746Z,96358.41
2019-05-19T15:49:30.373Z,96355.98
2019-05-19T15:52:10.508Z,96356.16
2019-05-19T15:54:44.008Z,96351.92
2019-05-19T15:57:13.757Z,96343.40
2019-05-19T15:59:43.426Z,96343.40
2019-05-19T16:02:29.418Z,96341.21
2019-05-19T16:05:01.203Z,96341.83
2019-05-19T16:07:34.103Z,96331.06
2019-05-19T16:10:04.099Z,96331.06
2019-05-19T16:12:33.773Z,96332.10
2019-05-19T16:15:03.554Z,96326.58
2019-05-19T16:17:33.100Z,96319.86
2019-05-19T16:20:02.575Z,96319.86
2019-05-19T16:22:34.561Z,96312.39
2019-05-19T16:25:08.610Z,96307.77
2019-05-19T16:27:39.675Z,96303.44
2019-05-19T16:30:09.246Z,96303.44
2019-05-19T16:32:39.182Z,96305.64
2019-05-19T16:35:10.057Z,96305.64
2019-05-19T16:37:41.320Z,96298.23
2019-05-19T16:40:11.236Z,96298.23
2019-05-19T16:42:44.426Z,96285.74
2019-05-19T16:45:14.822Z,96285.74
2019-05-19T16:47:44.687Z,96279.24
2019-05-19T16:50:14.732Z,96279.24
2019-05-19T16:52:46.112Z,96272.13
2019-05-19T16:55:22.911Z,96276.97
2019-05-19T16:57:52.634Z,96272.32
2019-05-19T17:00:30.305Z,96272.80
2019-05-19T17:02:58.189Z,96272.80
2019-05-19T17:05:31.292Z,96276.06
2019-05-19T17:08:05.083Z,96272.45
2019-05-19T17:10:38.768Z,96277.23
2019-05-19T17:13:10.418Z,96277.88
2019-05-19T17:15:43.331Z,96292.23
2019-05-19T17:18:17.057Z,96291.09
2019-05-19T17:20:47.155Z,96291.09
2019-05-19T17:23:18.638Z,96287.53
2019-05-19T17:25:57.660Z,96287.53
2019-05-19T17:28:30.190Z,96282.94
2019-05-19T17:31:02.595Z,96293.14
2019-05-19T17:33:37.384Z,96288.56
2019-05-19T17:36:13.300Z,96289.59
2019-05-19T17:38:38.363Z,96291.84
2019-05-19T17:41:08.766Z,96290.05
2019-05-19T17:43:42.197Z,96300.02
2019-05-19T17:46:11.884Z,96300.09
2019-05-19T17:48:43.220Z,96300.09
2019-05-19T17:51:22.316Z,96307.20
2019-05-19T17:53:54.730Z,96320.42
2019-05-19T17:56:24.643Z,96320.42
2019-05-19T18:01:20.967Z,96322.42
2019-05-19T18:03:51.941Z,96322.42
2019-05-19T18:06:22.758Z,96323.78
2019-05-19T18:08:52.347Z,96323.38
2019-05-19T18:11:24.971Z,96326.28
2019-05-19T18:13:58.335Z,96331.59
2019-05-19T18:16:28.223Z,96331.17
2019-05-19T18:19:00.820Z,96333.01
2019-05-19T18:21:30.279Z,96333.01
2019-05-19T18:24:00.463Z,96342.92
2019-05-19T18:26:30.255Z,96342.92
2019-05-19T18:29:05.175Z,96344.47
2019-05-19T18:31:34.674Z,96344.47
2019-05-19T18:34:04.801Z,96347.09
2019-05-19T18:36:34.673Z,96345.30
2019-05-19T18:39:08.987Z,96347.20
2019-05-19T18:41:38.759Z,96341.34
2019-05-19T18:44:11.168Z,96356.80
2019-05-19T18:46:44.392Z,96355.87
2019-05-19T18:49:15.934Z,96367.45
2019-05-19T18:51:45.952Z,96373.40
2019-05-19T18:54:23.258Z,96373.40
2019-05-19T18:56:55.143Z,96373.50
2019-05-19T18:59:26.975Z,96374.52
2019-05-19T19:01:56.479Z,96376.98
2019-05-19T19:04:26.721Z,96372.98
2019-05-19T19:06:57.648Z,96379.80
2019-05-19T19:09:27.200Z,96379.80
2019-05-19T19:11:56.966Z,96384.03
2019-05-19T19:14:27.809Z,96386.08
2019-05-19T19:16:57.702Z,96386.08
2019-05-19T19:19:27.256Z,96395.59
2019-05-19T19:21:57.186Z,96395.78
2019-05-19T19:24:26.733Z,96401.33
2019-05-19T19:26:56.348Z,96401.33
2019-05-19T19:29:28.830Z,96411.76
2019-05-19T19:32:02.521Z,96424.42
2019-05-19T19:34:34.994Z,96424.50
2019-05-19T19:37:06.299Z,96424.50
2019-05-19T19:39:36.154Z,96428.27
2019-05-19T19:42:07.113Z,96430.08
2019-05-19T19:44:37.191Z,96439.33
2019-05-19T19:47:07.198Z,96436.16
2019-05-19T19:49:37.858Z,96438.72
2019-05-19T19:52:07.989Z,96450.03
2019-05-19T19:54:37.753Z,96450.03
2019-05-19T19:57:07.263Z,96459.73
2019-05-19T19:59:36.848Z,96464.72
2019-05-19T20:02:06.711Z,96465.89
2019-05-19T20:04:36.319Z,96458.42
2019-05-19T20:07:06.394Z,96456.96
2019-05-19T20:09:43.806Z,96456.96
2019-05-19T20:12:15.892Z,96460.70
2019-05-19T20:14:45.680Z,96461.45
2019-05-19T20:17:15.334Z,96461.45
2019-05-19T20:19:45.040Z,96473.44
2019-05-19T20:22:15.335Z,96472.66
2019-05-19T20:24:47.315Z,96469.81
2019-05-19T20:27:23.081Z,96476.47
2019-05-19T20:29:53.142Z,96476.47
2019-05-19T20:32:24.691Z,96479.64
2019-05-19T20:34:57.958Z,96477.09
2019-05-19T20:37:30.198Z,96483.17
2019-05-19T20:40:01.303Z,96481.72
2019-05-19T20:42:32.465Z,96477.36
2019-05-19T20:45:02.206Z,96477.36
2019-05-19T20:47:32.130Z,96474.91
2019-05-19T20:50:01.875Z,96465.20
2019-05-19T20:52:33.049Z,96460.92
2019-05-19T20:55:04.644Z,96462.02
2019-05-19T20:57:39.139Z,96462.02
2019-05-19T21:00:10.777Z,96462.69
2019-05-19T21:02:43.480Z,96467.90
2019-05-19T21:05:13.253Z,96460.68
2019-05-19T21:07:42.897Z,96463.39
2019-05-19T21:10:13.298Z,96463.80
2019-05-19T21:12:43.630Z,96468.58
2019-05-19T21:15:13.741Z,96459.66
2019-05-19T21:17:44.735Z,96458.86
2019-05-19T21:20:14.491Z,96458.86
2019-05-19T21:22:48.159Z,96463.03
2019-05-19T21:25:18.097Z,96456.91
2019-05-19T21:27:48.475Z,96456.91
2019-05-19T21:30:18.309Z,96454.64
2019-05-19T21:32:48.056Z,96451.55
2019-05-19T21:35:17.810Z,96449.47
2019-05-19T21:37:47.300Z,96449.47
2019-05-19T21:40:16.967Z,96434.23
2019-05-19T21:42:46.511Z,96437.98
2019-05-19T21:45:18.750Z,96439.73
2019-05-19T21:47:49.904Z,96439.73
2019-05-19T21:50:24.023Z,96448.87
2019-05-19T21:52:54.632Z,96446.84
2019-05-19T21:55:29.081Z,96446.84
2019-05-19T21:57:59.753Z,96449.53
2019-05-19T22:00:30.960Z,96449.16
2019-05-19T22:03:01.448Z,96450.39
2019-05-19T22:05:31.372Z,96455.31
2019-05-19T22:08:06.005Z,96455.31
2019-05-19T22:10:35.796Z,96447.91
2019-05-19T22:13:05.209Z,96458.55
2019-05-19T22:15:35.019Z,96455.91
2019-05-19T22:18:05.467Z,96452.38
2019-05-19T22:20:35.181Z,96450.23
2019-05-19T22:23:05.070Z,96450.23
2019-05-19T22:25:35.215Z,96444.38
2019-05-19T22:28:04.789Z,96445.69
2019-05-19T22:30:34.287Z,96447.08
2019-05-19T22:33:03.811Z,96443.38
2019-05-19T22:35:33.395Z,96440.89
2019-05-19T22:38:09.355Z,96449.13
2019-05-19T22:40:41.523Z,96447.78
2019-05-19T22:45:41.920Z,96441.23
2019-05-19T22:48:11.478Z,96441.23
2019-05-19T22:50:43.991Z,96440.94
2019-05-19T22:53:13.954Z,96436.32
2019-05-19T22:55:43.466Z,96440.19
2019-05-19T22:58:12.973Z,96440.19
2019-05-19T23:00:44.220Z,96431.98
2019-05-19T23:03:13.961Z,96436.99
2019-05-19T23:05:44.191Z,96422.62
2019-05-19T23:08:14.383Z,96422.81
2019-05-19T23:10:43.974Z,96418.61
2019-05-19T23:13:13.729Z,96430.03
2019-05-19T23:15:43.766Z,96423.01
2019-05-19T23:18:13.336Z,96426.05
2019-05-19T23:20:43.141Z,96426.05
2019-05-19T23:23:13.870Z,96421.02
2019-05-19T23:25:43.456Z,96418.32
2019-05-19T23:28:13.202Z,96419.35
2019-05-19T23:30:43.375Z,96418.53
2019-05-19T23:33:14.633Z,96418.53
2019-05-19T23:35:45.253Z,96409.64
2019-05-19T23:38:14.757Z,96412.59
2019-05-19T23:40:44.547Z,96412.59
2019-05-19T23:43:14.329Z,96417.00
2019-05-19T23:45:43.918Z,96416.20
2019-05-19T23:48:13.600Z,96410.14
2019-05-19T23:50:46.140Z,96410.16
2019-05-19T23:53:15.594Z,96408.80
2019-05-19T23:55:45.182Z,96412.52
2019-05-19T23:58:15.190Z,96402.41
